sensor_id;sensor_type;location;lat;lon;timestamp;P1;durP1;ratioP1;P2;durP2;ratioP2
9364;SDS011;4722;49.340;9.800;2023-04-28T00:00:24;4.57;;;1.67;;
9364;SDS011;4722;49.340;9.800;2023-04-28T00:02:51;3.10;;;1.57;;
9364;SDS011;4722;49.340;9.800;2023-04-28T00:05:17;3.97;;;1.70;;
9364;SDS011;4722;49.340;9.800;2023-04-28T00:07:43;5.28;;;1.88;;
9364;SDS011;4722;49.340;9.800;2023-04-28T00:10:09;3.97;;;1.67;;
9364;SDS011;4722;49.340;9.800;2023-04-28T00:12:36;3.20;;;1.75;;
9364;SDS011;4722;49.340;9.800;2023-04-28T00:15:02;4.07;;;2.40;;
9364;SDS011;4722;49.340;9.800;2023-04-28T00:17:28;4.90;;;1.90;;
9364;SDS011;4722;49.340;9.800;2023-04-28T00:19:54;2.58;;;1.50;;
9364;SDS011;4722;49.340;9.800;2023-04-28T00:22:20;5.07;;;2.30;;
9364;SDS011;4722;49.340;9.800;2023-04-28T00:24:46;4.13;;;1.67;;
9364;SDS011;4722;49.340;9.800;2023-04-28T00:27:12;3.35;;;1.75;;
9364;SDS011;4722;49.340;9.800;2023-04-28T00:29:38;6.57;;;1.67;;
9364;SDS011;4722;49.340;9.800;2023-04-28T00:32:04;3.57;;;2.00;;
9364;SDS011;4722;49.340;9.800;2023-04-28T00:34:32;4.93;;;2.25;;
9364;SDS011;4722;49.340;9.800;2023-04-28T00:37:01;4.13;;;2.30;;
9364;SDS011;4722;49.340;9.800;2023-04-28T00:39:27;3.83;;;2.23;;
9364;SDS011;4722;49.340;9.800;2023-04-28T00:41:53;5.38;;;1.88;;
9364;SDS011;4722;49.340;9.800;2023-04-28T00:44:19;3.35;;;1.92;;
9364;SDS011;4722;49.340;9.800;2023-04-28T00:46:45;4.22;;;2.08;;
9364;SDS011;4722;49.340;9.800;2023-04-28T00:49:11;3.90;;;2.28;;
9364;SDS011;4722;49.340;9.800;2023-04-28T00:51:37;4.82;;;2.65;;
9364;SDS011;4722;49.340;9.800;2023-04-28T00:54:04;5.22;;;2.40;;
9364;SDS011;4722;49.340;9.800;2023-04-28T00:56:31;5.15;;;2.67;;
9364;SDS011;4722;49.340;9.800;2023-04-28T00:58:57;4.10;;;2.15;;
9364;SDS011;4722;49.340;9.800;2023-04-28T01:01:23;5.35;;;2.33;;
9364;SDS011;4722;49.340;9.800;2023-04-28T01:03:49;4.43;;;2.20;;
9364;SDS011;4722;49.340;9.800;2023-04-28T01:06:15;4.80;;;2.53;;
9364;SDS011;4722;49.340;9.800;2023-04-28T01:08:41;4.70;;;2.38;;
9364;SDS011;4722;49.340;9.800;2023-04-28T01:11:08;5.13;;;2.00;;
9364;SDS011;4722;49.340;9.800;2023-04-28T01:13:37;4.90;;;2.55;;
9364;SDS011;4722;49.340;9.800;2023-04-28T01:16:03;4.17;;;2.27;;
9364;SDS011;4722;49.340;9.800;2023-04-28T01:18:30;3.55;;;2.00;;
9364;SDS011;4722;49.340;9.800;2023-04-28T01:20:56;4.90;;;2.30;;
9364;SDS011;4722;49.340;9.800;2023-04-28T01:23:22;7.30;;;2.30;;
9364;SDS011;4722;49.340;9.800;2023-04-28T01:25:48;6.07;;;2.63;;
9364;SDS011;4722;49.340;9.800;2023-04-28T01:28:14;4.45;;;2.65;;
9364;SDS011;4722;49.340;9.800;2023-04-28T01:30:40;4.97;;;2.55;;
9364;SDS011;4722;49.340;9.800;2023-04-28T01:33:06;5.10;;;3.05;;
9364;SDS011;4722;49.340;9.800;2023-04-28T01:35:32;3.97;;;2.17;;
9364;SDS011;4722;49.340;9.800;2023-04-28T01:37:58;5.20;;;2.40;;
9364;SDS011;4722;49.340;9.800;2023-04-28T01:40:24;6.13;;;2.57;;
9364;SDS011;4722;49.340;9.800;2023-04-28T01:42:50;4.65;;;2.20;;
9364;SDS011;4722;49.340;9.800;2023-04-28T01:45:16;4.57;;;2.45;;
9364;SDS011;4722;49.340;9.800;2023-04-28T01:47:42;4.28;;;2.20;;
9364;SDS011;4722;49.340;9.800;2023-04-28T01:50:08;4.47;;;2.30;;
9364;SDS011;4722;49.340;9.800;2023-04-28T01:52:34;7.67;;;2.73;;
9364;SDS011;4722;49.340;9.800;2023-04-28T01:55:00;4.50;;;2.30;;
9364;SDS011;4722;49.340;9.800;2023-04-28T01:57:26;4.50;;;2.53;;
9364;SDS011;4722;49.340;9.800;2023-04-28T01:59:53;4.43;;;2.70;;
9364;SDS011;4722;49.340;9.800;2023-04-28T02:02:19;5.63;;;2.80;;
9364;SDS011;4722;49.340;9.800;2023-04-28T02:04:45;5.00;;;2.80;;
9364;SDS011;4722;49.340;9.800;2023-04-28T02:07:11;5.80;;;2.80;;
9364;SDS011;4722;49.340;9.800;2023-04-28T02:09:37;5.00;;;2.90;;
9364;SDS011;4722;49.340;9.800;2023-04-28T02:12:03;5.35;;;2.75;;
9364;SDS011;4722;49.340;9.800;2023-04-28T02:14:29;8.80;;;3.42;;
9364;SDS011;4722;49.340;9.800;2023-04-28T02:16:56;5.33;;;2.80;;
9364;SDS011;4722;49.340;9.800;2023-04-28T02:19:22;5.78;;;3.13;;
9364;SDS011;4722;49.340;9.800;2023-04-28T02:21:48;5.25;;;2.65;;
9364;SDS011;4722;49.340;9.800;2023-04-28T02:24:14;6.82;;;2.92;;
9364;SDS011;4722;49.340;9.800;2023-04-28T02:26:40;6.03;;;3.23;;
9364;SDS011;4722;49.340;9.800;2023-04-28T02:29:06;6.30;;;3.63;;
9364;SDS011;4722;49.340;9.800;2023-04-28T02:31:32;5.15;;;3.17;;
9364;SDS011;4722;49.340;9.800;2023-04-28T02:33:58;7.30;;;3.78;;
9364;SDS011;4722;49.340;9.800;2023-04-28T02:36:24;6.97;;;3.70;;
9364;SDS011;4722;49.340;9.800;2023-04-28T02:38:51;5.77;;;3.13;;
9364;SDS011;4722;49.340;9.800;2023-04-28T02:41:17;6.90;;;3.72;;
9364;SDS011;4722;49.340;9.800;2023-04-28T02:43:43;5.25;;;3.00;;
9364;SDS011;4722;49.340;9.800;2023-04-28T02:46:09;5.85;;;3.38;;
9364;SDS011;4722;49.340;9.800;2023-04-28T02:48:35;5.38;;;2.85;;
9364;SDS011;4722;49.340;9.800;2023-04-28T02:51:01;5.20;;;3.03;;
9364;SDS011;4722;49.340;9.800;2023-04-28T02:53:27;7.97;;;2.90;;
9364;SDS011;4722;49.340;9.800;2023-04-28T02:55:53;6.13;;;3.05;;
9364;SDS011;4722;49.340;9.800;2023-04-28T02:58:19;5.60;;;2.75;;
9364;SDS011;4722;49.340;9.800;2023-04-28T03:00:45;5.75;;;2.97;;
9364;SDS011;4722;49.340;9.800;2023-04-28T03:03:11;6.68;;;3.33;;
9364;SDS011;4722;49.340;9.800;2023-04-28T03:05:37;5.70;;;3.07;;
9364;SDS011;4722;49.340;9.800;2023-04-28T03:08:04;5.15;;;2.70;;
9364;SDS011;4722;49.340;9.800;2023-04-28T03:10:30;5.33;;;3.23;;
9364;SDS011;4722;49.340;9.800;2023-04-28T03:12:56;5.30;;;2.42;;
9364;SDS011;4722;49.340;9.800;2023-04-28T03:15:22;6.13;;;3.05;;
9364;SDS011;4722;49.340;9.800;2023-04-28T03:17:48;5.63;;;3.60;;
9364;SDS011;4722;49.340;9.800;2023-04-28T03:20:14;6.38;;;3.38;;
9364;SDS011;4722;49.340;9.800;2023-04-28T03:22:40;5.10;;;2.90;;
9364;SDS011;4722;49.340;9.800;2023-04-28T03:25:06;9.60;;;4.37;;
9364;SDS011;4722;49.340;9.800;2023-04-28T03:27:32;7.47;;;4.00;;
9364;SDS011;4722;49.340;9.800;2023-04-28T03:29:58;6.57;;;3.38;;
9364;SDS011;4722;49.340;9.800;2023-04-28T03:32:24;5.10;;;3.05;;
9364;SDS011;4722;49.340;9.800;2023-04-28T03:34:50;8.73;;;3.92;;
9364;SDS011;4722;49.340;9.800;2023-04-28T03:37:16;7.45;;;4.05;;
9364;SDS011;4722;49.340;9.800;2023-04-28T03:39:42;7.88;;;3.85;;
9364;SDS011;4722;49.340;9.800;2023-04-28T03:42:08;6.90;;;3.87;;
9364;SDS011;4722;49.340;9.800;2023-04-28T03:44:34;7.45;;;3.78;;
9364;SDS011;4722;49.340;9.800;2023-04-28T03:47:00;7.43;;;4.38;;
9364;SDS011;4722;49.340;9.800;2023-04-28T03:49:26;7.88;;;3.50;;
9364;SDS011;4722;49.340;9.800;2023-04-28T03:51:52;6.60;;;3.58;;
9364;SDS011;4722;49.340;9.800;2023-04-28T03:54:18;5.70;;;3.57;;
9364;SDS011;4722;49.340;9.800;2023-04-28T03:56:44;11.38;;;5.00;;
9364;SDS011;4722;49.340;9.800;2023-04-28T03:59:10;6.90;;;3.72;;
9364;SDS011;4722;49.340;9.800;2023-04-28T04:01:37;8.10;;;4.13;;
9364;SDS011;4722;49.340;9.800;2023-04-28T04:04:03;6.63;;;3.67;;
9364;SDS011;4722;49.340;9.800;2023-04-28T04:06:29;6.05;;;3.88;;
9364;SDS011;4722;49.340;9.800;2023-04-28T04:08:56;8.05;;;4.07;;
9364;SDS011;4722;49.340;9.800;2023-04-28T04:11:22;7.00;;;3.83;;
9364;SDS011;4722;49.340;9.800;2023-04-28T04:13:48;16.77;;;4.65;;
9364;SDS011;4722;49.340;9.800;2023-04-28T04:16:14;7.17;;;3.50;;
9364;SDS011;4722;49.340;9.800;2023-04-28T04:18:40;6.13;;;3.40;;
9364;SDS011;4722;49.340;9.800;2023-04-28T04:21:06;7.25;;;3.35;;
9364;SDS011;4722;49.340;9.800;2023-04-28T04:23:32;8.32;;;4.60;;
9364;SDS011;4722;49.340;9.800;2023-04-28T04:25:58;4.80;;;3.00;;
9364;SDS011;4722;49.340;9.800;2023-04-28T04:28:24;6.72;;;3.85;;
9364;SDS011;4722;49.340;9.800;2023-04-28T04:30:50;8.23;;;3.80;;
9364;SDS011;4722;49.340;9.800;2023-04-28T04:33:16;5.70;;;3.53;;
9364;SDS011;4722;49.340;9.800;2023-04-28T04:35:42;5.68;;;3.38;;
9364;SDS011;4722;49.340;9.800;2023-04-28T04:38:08;6.22;;;4.00;;
9364;SDS011;4722;49.340;9.800;2023-04-28T04:40:34;7.97;;;4.18;;
9364;SDS011;4722;49.340;9.800;2023-04-28T04:43:00;7.47;;;3.35;;
9364;SDS011;4722;49.340;9.800;2023-04-28T04:45:26;5.97;;;3.38;;
9364;SDS011;4722;49.340;9.800;2023-04-28T04:47:52;5.00;;;3.13;;
9364;SDS011;4722;49.340;9.800;2023-04-28T04:50:18;5.25;;;2.90;;
9364;SDS011;4722;49.340;9.800;2023-04-28T04:52:44;6.97;;;2.65;;
9364;SDS011;4722;49.340;9.800;2023-04-28T04:55:10;5.47;;;2.67;;
9364;SDS011;4722;49.340;9.800;2023-04-28T04:57:36;6.40;;;3.13;;
9364;SDS011;4722;49.340;9.800;2023-04-28T05:00:03;6.50;;;3.65;;
9364;SDS011;4722;49.340;9.800;2023-04-28T05:02:29;8.43;;;3.65;;
9364;SDS011;4722;49.340;9.800;2023-04-28T05:04:55;8.30;;;4.35;;
9364;SDS011;4722;49.340;9.800;2023-04-28T05:07:21;8.45;;;4.38;;
9364;SDS011;4722;49.340;9.800;2023-04-28T05:09:47;7.57;;;3.92;;
9364;SDS011;4722;49.340;9.800;2023-04-28T05:12:13;6.67;;;4.00;;
9364;SDS011;4722;49.340;9.800;2023-04-28T05:14:39;8.60;;;4.63;;
9364;SDS011;4722;49.340;9.800;2023-04-28T05:17:05;9.75;;;5.18;;
9364;SDS011;4722;49.340;9.800;2023-04-28T05:19:31;8.57;;;4.50;;
9364;SDS011;4722;49.340;9.800;2023-04-28T05:21:57;9.38;;;4.43;;
9364;SDS011;4722;49.340;9.800;2023-04-28T05:24:24;7.63;;;4.13;;
9364;SDS011;4722;49.340;9.800;2023-04-28T05:26:51;7.73;;;4.20;;
9364;SDS011;4722;49.340;9.800;2023-04-28T05:29:18;11.02;;;4.78;;
9364;SDS011;4722;49.340;9.800;2023-04-28T05:31:43;7.40;;;4.60;;
9364;SDS011;4722;49.340;9.800;2023-04-28T05:34:10;8.18;;;4.53;;
9364;SDS011;4722;49.340;9.800;2023-04-28T05:36:36;9.48;;;5.65;;
9364;SDS011;4722;49.340;9.800;2023-04-28T05:39:02;9.95;;;4.80;;
9364;SDS011;4722;49.340;9.800;2023-04-28T05:41:28;9.45;;;4.78;;
9364;SDS011;4722;49.340;9.800;2023-04-28T05:43:54;8.20;;;4.05;;
9364;SDS011;4722;49.340;9.800;2023-04-28T05:51:12;8.65;;;3.58;;
9364;SDS011;4722;49.340;9.800;2023-04-28T05:53:38;7.78;;;3.97;;
9364;SDS011;4722;49.340;9.800;2023-04-28T05:56:04;7.68;;;3.47;;
9364;SDS011;4722;49.340;9.800;2023-04-28T05:58:30;8.07;;;4.85;;
9364;SDS011;4722;49.340;9.800;2023-04-28T06:00:56;8.90;;;4.90;;
9364;SDS011;4722;49.340;9.800;2023-04-28T06:03:22;7.55;;;4.78;;
9364;SDS011;4722;49.340;9.800;2023-04-28T06:05:48;10.70;;;3.88;;
9364;SDS011;4722;49.340;9.800;2023-04-28T06:08:14;9.10;;;4.30;;
9364;SDS011;4722;49.340;9.800;2023-04-28T06:10:40;7.88;;;3.88;;
9364;SDS011;4722;49.340;9.800;2023-04-28T06:13:06;7.35;;;4.95;;
9364;SDS011;4722;49.340;9.800;2023-04-28T06:15:33;8.13;;;3.63;;
9364;SDS011;4722;49.340;9.800;2023-04-28T06:17:59;7.63;;;4.03;;
9364;SDS011;4722;49.340;9.800;2023-04-28T06:20:25;8.52;;;3.92;;
9364;SDS011;4722;49.340;9.800;2023-04-28T06:22:51;8.30;;;3.95;;
9364;SDS011;4722;49.340;9.800;2023-04-28T06:25:17;7.72;;;3.92;;
9364;SDS011;4722;49.340;9.800;2023-04-28T06:27:43;7.95;;;2.85;;
9364;SDS011;4722;49.340;9.800;2023-04-28T06:30:09;7.93;;;4.57;;
9364;SDS011;4722;49.340;9.800;2023-04-28T06:32:35;9.00;;;3.90;;
9364;SDS011;4722;49.340;9.800;2023-04-28T06:35:00;5.18;;;3.72;;
9364;SDS011;4722;49.340;9.800;2023-04-28T06:37:26;7.45;;;4.03;;
9364;SDS011;4722;49.340;9.800;2023-04-28T06:39:52;8.15;;;3.95;;
9364;SDS011;4722;49.340;9.800;2023-04-28T06:42:18;9.73;;;4.30;;
9364;SDS011;4722;49.340;9.800;2023-04-28T06:44:44;6.32;;;3.58;;
9364;SDS011;4722;49.340;9.800;2023-04-28T06:47:10;8.25;;;4.20;;
9364;SDS011;4722;49.340;9.800;2023-04-28T06:49:36;12.30;;;5.18;;
9364;SDS011;4722;49.340;9.800;2023-04-28T06:52:02;9.00;;;4.55;;
9364;SDS011;4722;49.340;9.800;2023-04-28T06:54:28;11.10;;;4.93;;
9364;SDS011;4722;49.340;9.800;2023-04-28T06:56:54;10.27;;;4.85;;
9364;SDS011;4722;49.340;9.800;2023-04-28T06:59:20;7.82;;;4.18;;
9364;SDS011;4722;49.340;9.800;2023-04-28T07:01:46;6.55;;;3.78;;
9364;SDS011;4722;49.340;9.800;2023-04-28T07:04:12;6.40;;;3.53;;
9364;SDS011;4722;49.340;9.800;2023-04-28T07:06:38;5.65;;;3.40;;
9364;SDS011;4722;49.340;9.800;2023-04-28T07:09:04;5.85;;;3.55;;
9364;SDS011;4722;49.340;9.800;2023-04-28T07:11:30;6.75;;;3.50;;
9364;SDS011;4722;49.340;9.800;2023-04-28T07:13:57;9.32;;;3.33;;
9364;SDS011;4722;49.340;9.800;2023-04-28T07:16:24;11.55;;;3.88;;
9364;SDS011;4722;49.340;9.800;2023-04-28T07:18:50;4.60;;;2.80;;
9364;SDS011;4722;49.340;9.800;2023-04-28T07:21:16;7.35;;;4.03;;
9364;SDS011;4722;49.340;9.800;2023-04-28T07:23:42;6.80;;;4.13;;
9364;SDS011;4722;49.340;9.800;2023-04-28T07:26:08;9.63;;;5.07;;
9364;SDS011;4722;49.340;9.800;2023-04-28T07:28:34;8.52;;;5.18;;
9364;SDS011;4722;49.340;9.800;2023-04-28T07:31:00;10.00;;;3.45;;
9364;SDS011;4722;49.340;9.800;2023-04-28T07:33:27;6.75;;;3.67;;
9364;SDS011;4722;49.340;9.800;2023-04-28T07:35:53;3.75;;;2.42;;
9364;SDS011;4722;49.340;9.800;2023-04-28T07:38:19;7.20;;;2.83;;
9364;SDS011;4722;49.340;9.800;2023-04-28T07:40:45;5.65;;;3.33;;
9364;SDS011;4722;49.340;9.800;2023-04-28T07:43:11;11.45;;;4.38;;
9364;SDS011;4722;49.340;9.800;2023-04-28T07:45:38;5.35;;;3.58;;
9364;SDS011;4722;49.340;9.800;2023-04-28T07:48:04;6.47;;;3.50;;
9364;SDS011;4722;49.340;9.800;2023-04-28T07:50:30;6.07;;;3.28;;
9364;SDS011;4722;49.340;9.800;2023-04-28T07:52:57;5.40;;;2.85;;
9364;SDS011;4722;49.340;9.800;2023-04-28T07:55:23;6.65;;;3.67;;
9364;SDS011;4722;49.340;9.800;2023-04-28T07:57:49;5.88;;;3.30;;
9364;SDS011;4722;49.340;9.800;2023-04-28T08:00:15;8.93;;;2.95;;
9364;SDS011;4722;49.340;9.800;2023-04-28T08:02:41;4.30;;;2.15;;
9364;SDS011;4722;49.340;9.800;2023-04-28T08:05:07;4.43;;;2.60;;
9364;SDS011;4722;49.340;9.800;2023-04-28T08:07:34;5.85;;;3.00;;
9364;SDS011;4722;49.340;9.800;2023-04-28T08:10:01;6.40;;;2.88;;
9364;SDS011;4722;49.340;9.800;2023-04-28T08:12:27;5.20;;;3.20;;
9364;SDS011;4722;49.340;9.800;2023-04-28T08:14:53;4.80;;;2.88;;
9364;SDS011;4722;49.340;9.800;2023-04-28T08:17:19;10.10;;;3.28;;
9364;SDS011;4722;49.340;9.800;2023-04-28T08:19:45;6.05;;;2.70;;
9364;SDS011;4722;49.340;9.800;2023-04-28T08:22:11;3.13;;;2.20;;
9364;SDS011;4722;49.340;9.800;2023-04-28T08:24:37;5.18;;;2.80;;
9364;SDS011;4722;49.340;9.800;2023-04-28T08:27:03;4.90;;;3.03;;
9364;SDS011;4722;49.340;9.800;2023-04-28T08:29:30;6.72;;;3.33;;
9364;SDS011;4722;49.340;9.800;2023-04-28T08:31:56;5.32;;;2.92;;
9364;SDS011;4722;49.340;9.800;2023-04-28T08:34:22;4.88;;;2.08;;
9364;SDS011;4722;49.340;9.800;2023-04-28T08:36:48;5.22;;;2.25;;
9364;SDS011;4722;49.340;9.800;2023-04-28T08:39:15;4.88;;;2.88;;
9364;SDS011;4722;49.340;9.800;2023-04-28T08:41:41;4.97;;;2.45;;
9364;SDS011;4722;49.340;9.800;2023-04-28T08:44:08;6.97;;;2.42;;
9364;SDS011;4722;49.340;9.800;2023-04-28T08:46:34;3.80;;;2.25;;
9364;SDS011;4722;49.340;9.800;2023-04-28T08:49:00;4.20;;;2.17;;
9364;SDS011;4722;49.340;9.800;2023-04-28T08:51:32;4.07;;;2.25;;
9364;SDS011;4722;49.340;9.800;2023-04-28T08:53:58;5.20;;;2.78;;
9364;SDS011;4722;49.340;9.800;2023-04-28T08:56:31;4.03;;;2.08;;
9364;SDS011;4722;49.340;9.800;2023-04-28T08:59:02;5.00;;;2.85;;
9364;SDS011;4722;49.340;9.800;2023-04-28T09:01:29;5.75;;;3.35;;
9364;SDS011;4722;49.340;9.800;2023-04-28T09:03:55;9.98;;;2.38;;
9364;SDS011;4722;49.340;9.800;2023-04-28T09:06:21;4.00;;;2.30;;
9364;SDS011;4722;49.340;9.800;2023-04-28T09:08:47;4.15;;;2.13;;
9364;SDS011;4722;49.340;9.800;2023-04-28T09:11:13;4.40;;;1.85;;
9364;SDS011;4722;49.340;9.800;2023-04-28T09:13:40;4.40;;;2.08;;
9364;SDS011;4722;49.340;9.800;2023-04-28T09:16:07;3.60;;;1.95;;
9364;SDS011;4722;49.340;9.800;2023-04-28T09:18:33;4.47;;;2.13;;
9364;SDS011;4722;49.340;9.800;2023-04-28T09:21:05;2.88;;;1.90;;
9364;SDS011;4722;49.340;9.800;2023-04-28T09:23:31;2.85;;;1.67;;
9364;SDS011;4722;49.340;9.800;2023-04-28T09:25:58;7.38;;;2.33;;
9364;SDS011;4722;49.340;9.800;2023-04-28T09:28:24;5.53;;;2.30;;
9364;SDS011;4722;49.340;9.800;2023-04-28T09:30:50;3.67;;;1.88;;
9364;SDS011;4722;49.340;9.800;2023-04-28T09:33:16;4.65;;;2.35;;
9364;SDS011;4722;49.340;9.800;2023-04-28T09:35:42;3.38;;;1.77;;
9364;SDS011;4722;49.340;9.800;2023-04-28T09:38:12;3.40;;;1.63;;
9364;SDS011;4722;49.340;9.800;2023-04-28T09:41:12;4.47;;;1.88;;
9364;SDS011;4722;49.340;9.800;2023-04-28T09:43:32;3.75;;;1.90;;
9364;SDS011;4722;49.340;9.800;2023-04-28T09:45:59;3.05;;;1.80;;
9364;SDS011;4722;49.340;9.800;2023-04-28T09:48:33;5.43;;;2.22;;
9364;SDS011;4722;49.340;9.800;2023-04-28T09:51:03;4.70;;;2.20;;
9364;SDS011;4722;49.340;9.800;2023-04-28T09:53:30;4.93;;;2.28;;
9364;SDS011;4722;49.340;9.800;2023-04-28T09:55:57;3.92;;;1.90;;
9364;SDS011;4722;49.340;9.800;2023-04-28T09:58:23;3.45;;;1.60;;
9364;SDS011;4722;49.340;9.800;2023-04-28T10:00:53;3.50;;;2.03;;
9364;SDS011;4722;49.340;9.800;2023-04-28T10:03:20;3.35;;;1.80;;
9364;SDS011;4722;49.340;9.800;2023-04-28T10:05:47;3.35;;;1.85;;
9364;SDS011;4722;49.340;9.800;2023-04-28T10:08:15;4.15;;;2.05;;
9364;SDS011;4722;49.340;9.800;2023-04-28T10:10:41;4.78;;;1.77;;
9364;SDS011;4722;49.340;9.800;2023-04-28T10:13:08;5.75;;;1.63;;
9364;SDS011;4722;49.340;9.800;2023-04-28T10:15:34;5.30;;;2.45;;
9364;SDS011;4722;49.340;9.800;2023-04-28T10:18:01;3.45;;;2.30;;
9364;SDS011;4722;49.340;9.800;2023-04-28T10:20:27;4.97;;;1.85;;
9364;SDS011;4722;49.340;9.800;2023-04-28T10:23:00;4.53;;;1.92;;
9364;SDS011;4722;49.340;9.800;2023-04-28T10:25:35;3.67;;;1.88;;
9364;SDS011;4722;49.340;9.800;2023-04-28T10:28:06;2.22;;;1.38;;
9364;SDS011;4722;49.340;9.800;2023-04-28T10:30:33;7.45;;;1.65;;
9364;SDS011;4722;49.340;9.800;2023-04-28T10:38:11;2.95;;;1.48;;
9364;SDS011;4722;49.340;9.800;2023-04-28T10:40:38;4.65;;;1.65;;
9364;SDS011;4722;49.340;9.800;2023-04-28T10:43:05;2.83;;;1.60;;
9364;SDS011;4722;49.340;9.800;2023-04-28T10:48:20;4.45;;;2.10;;
9364;SDS011;4722;49.340;9.800;2023-04-28T10:58:40;2.47;;;1.45;;
9364;SDS011;4722;49.340;9.800;2023-04-28T11:09:02;2.10;;;1.10;;
9364;SDS011;4722;49.340;9.800;2023-04-28T11:11:28;1.95;;;1.45;;
9364;SDS011;4722;49.340;9.800;2023-04-28T11:14:30;4.32;;;1.33;;
9364;SDS011;4722;49.340;9.800;2023-04-28T11:16:57;2.45;;;1.23;;
9364;SDS011;4722;49.340;9.800;2023-04-28T11:21:56;3.38;;;1.42;;
9364;SDS011;4722;49.340;9.800;2023-04-28T11:24:23;1.73;;;0.90;;
9364;SDS011;4722;49.340;9.800;2023-04-28T11:26:49;1.48;;;0.80;;
9364;SDS011;4722;49.340;9.800;2023-04-28T11:29:16;2.30;;;1.42;;
9364;SDS011;4722;49.340;9.800;2023-04-28T11:31:49;2.65;;;1.20;;
9364;SDS011;4722;49.340;9.800;2023-04-28T11:34:18;1.25;;;0.90;;
9364;SDS011;4722;49.340;9.800;2023-04-28T11:36:48;2.67;;;1.35;;
9364;SDS011;4722;49.340;9.800;2023-04-28T11:39:14;3.42;;;1.90;;
9364;SDS011;4722;49.340;9.800;2023-04-28T11:41:41;4.82;;;2.38;;
9364;SDS011;4722;49.340;9.800;2023-04-28T11:44:17;4.60;;;2.25;;
9364;SDS011;4722;49.340;9.800;2023-04-28T11:46:51;4.20;;;1.88;;
9364;SDS011;4722;49.340;9.800;2023-04-28T11:49:24;3.58;;;1.92;;
9364;SDS011;4722;49.340;9.800;2023-04-28T11:51:53;2.20;;;1.10;;
9364;SDS011;4722;49.340;9.800;2023-04-28T11:54:23;1.65;;;0.98;;
9364;SDS011;4722;49.340;9.800;2023-04-28T11:56:49;2.40;;;1.23;;
9364;SDS011;4722;49.340;9.800;2023-04-28T11:59:16;4.60;;;1.02;;
9364;SDS011;4722;49.340;9.800;2023-04-28T12:04:11;1.92;;;1.00;;
9364;SDS011;4722;49.340;9.800;2023-04-28T12:06:38;2.45;;;1.10;;
9364;SDS011;4722;49.340;9.800;2023-04-28T12:09:18;3.90;;;1.90;;
9364;SDS011;4722;49.340;9.800;2023-04-28T12:11:53;1.85;;;1.00;;
9364;SDS011;4722;49.340;9.800;2023-04-28T12:14:19;2.78;;;2.10;;
9364;SDS011;4722;49.340;9.800;2023-04-28T12:16:45;3.35;;;2.30;;
9364;SDS011;4722;49.340;9.800;2023-04-28T12:19:13;3.30;;;2.58;;
9364;SDS011;4722;49.340;9.800;2023-04-28T12:21:40;1.75;;;1.13;;
9364;SDS011;4722;49.340;9.800;2023-04-28T12:24:13;2.22;;;1.30;;
9364;SDS011;4722;49.340;9.800;2023-04-28T12:26:39;0.93;;;0.60;;
9364;SDS011;4722;49.340;9.800;2023-04-28T12:29:06;1.88;;;0.77;;
9364;SDS011;4722;49.340;9.800;2023-04-28T12:31:46;4.28;;;0.65;;
9364;SDS011;4722;49.340;9.800;2023-04-28T12:34:12;2.65;;;0.77;;
9364;SDS011;4722;49.340;9.800;2023-04-28T12:36:38;1.92;;;0.60;;
9364;SDS011;4722;49.340;9.800;2023-04-28T12:39:11;0.73;;;0.40;;
9364;SDS011;4722;49.340;9.800;2023-04-28T12:41:37;1.27;;;0.60;;
9364;SDS011;4722;49.340;9.800;2023-04-28T12:44:03;1.00;;;0.70;;
9364;SDS011;4722;49.340;9.800;2023-04-28T12:46:29;1.50;;;0.70;;
9364;SDS011;4722;49.340;9.800;2023-04-28T12:48:55;2.63;;;0.90;;
9364;SDS011;4722;49.340;9.800;2023-04-28T12:51:21;4.72;;;1.20;;
9364;SDS011;4722;49.340;9.800;2023-04-28T12:53:47;3.15;;;1.30;;
9364;SDS011;4722;49.340;9.800;2023-04-28T12:56:13;5.25;;;1.08;;
9364;SDS011;4722;49.340;9.800;2023-04-28T12:58:40;4.80;;;1.50;;
9364;SDS011;4722;49.340;9.800;2023-04-28T13:01:05;3.10;;;1.42;;
9364;SDS011;4722;49.340;9.800;2023-04-28T13:03:32;2.38;;;1.05;;
9364;SDS011;4722;49.340;9.800;2023-04-28T13:05:58;6.43;;;1.25;;
9364;SDS011;4722;49.340;9.800;2023-04-28T13:08:24;2.58;;;1.33;;
9364;SDS011;4722;49.340;9.800;2023-04-28T13:10:50;2.30;;;0.90;;
9364;SDS011;4722;49.340;9.800;2023-04-28T13:13:16;4.25;;;2.13;;
9364;SDS011;4722;49.340;9.800;2023-04-28T13:15:41;10.63;;;3.70;;
9364;SDS011;4722;49.340;9.800;2023-04-28T13:18:07;5.80;;;2.42;;
9364;SDS011;4722;49.340;9.800;2023-04-28T13:20:33;4.03;;;2.33;;
9364;SDS011;4722;49.340;9.800;2023-04-28T13:22:59;3.65;;;1.70;;
9364;SDS011;4722;49.340;9.800;2023-04-28T13:25:25;2.58;;;1.05;;
9364;SDS011;4722;49.340;9.800;2023-04-28T13:27:51;2.50;;;1.27;;
9364;SDS011;4722;49.340;9.800;2023-04-28T13:30:17;3.13;;;1.30;;
9364;SDS011;4722;49.340;9.800;2023-04-28T13:32:43;2.33;;;0.95;;
9364;SDS011;4722;49.340;9.800;2023-04-28T13:35:09;3.33;;;1.48;;
9364;SDS011;4722;49.340;9.800;2023-04-28T13:37:35;4.15;;;2.08;;
9364;SDS011;4722;49.340;9.800;2023-04-28T13:40:06;3.58;;;1.65;;
9364;SDS011;4722;49.340;9.800;2023-04-28T13:42:32;3.35;;;1.33;;
9364;SDS011;4722;49.340;9.800;2023-04-28T13:44:58;8.07;;;3.83;;
9364;SDS011;4722;49.340;9.800;2023-04-28T13:47:24;6.22;;;3.10;;
9364;SDS011;4722;49.340;9.800;2023-04-28T13:49:50;6.78;;;2.55;;
9364;SDS011;4722;49.340;9.800;2023-04-28T13:52:16;10.60;;;3.67;;
9364;SDS011;4722;49.340;9.800;2023-04-28T13:54:42;6.60;;;3.33;;
9364;SDS011;4722;49.340;9.800;2023-04-28T13:57:08;4.40;;;1.98;;
9364;SDS011;4722;49.340;9.800;2023-04-28T13:59:37;3.40;;;1.20;;
9364;SDS011;4722;49.340;9.800;2023-04-28T14:02:03;3.47;;;1.33;;
9364;SDS011;4722;49.340;9.800;2023-04-28T14:04:29;2.85;;;1.10;;
9364;SDS011;4722;49.340;9.800;2023-04-28T14:06:55;3.10;;;1.67;;
9364;SDS011;4722;49.340;9.800;2023-04-28T14:09:21;1.95;;;1.33;;
9364;SDS011;4722;49.340;9.800;2023-04-28T14:11:47;2.67;;;1.30;;
9364;SDS011;4722;49.340;9.800;2023-04-28T14:14:13;2.22;;;1.17;;
9364;SDS011;4722;49.340;9.800;2023-04-28T14:16:39;1.88;;;1.33;;
9364;SDS011;4722;49.340;9.800;2023-04-28T14:19:05;3.63;;;1.77;;
9364;SDS011;4722;49.340;9.800;2023-04-28T14:21:32;2.00;;;1.38;;
9364;SDS011;4722;49.340;9.800;2023-04-28T14:23:58;4.57;;;1.70;;
9364;SDS011;4722;49.340;9.800;2023-04-28T14:26:24;1.05;;;0.82;;
9364;SDS011;4722;49.340;9.800;2023-04-28T14:28:50;2.15;;;0.90;;
9364;SDS011;4722;49.340;9.800;2023-04-28T14:31:16;2.35;;;0.85;;
9364;SDS011;4722;49.340;9.800;2023-04-28T14:33:42;1.77;;;0.47;;
9364;SDS011;4722;49.340;9.800;2023-04-28T14:36:08;1.52;;;0.52;;
9364;SDS011;4722;49.340;9.800;2023-04-28T14:38:35;1.05;;;0.40;;
9364;SDS011;4722;49.340;9.800;2023-04-28T14:41:01;2.72;;;0.60;;
9364;SDS011;4722;49.340;9.800;2023-04-28T14:43:27;2.05;;;0.60;;
9364;SDS011;4722;49.340;9.800;2023-04-28T14:45:53;2.00;;;0.45;;
9364;SDS011;4722;49.340;9.800;2023-04-28T14:48:19;1.52;;;0.45;;
9364;SDS011;4722;49.340;9.800;2023-04-28T14:50:45;1.52;;;0.10;;
9364;SDS011;4722;49.340;9.800;2023-04-28T14:53:10;0.50;;;0.20;;
9364;SDS011;4722;49.340;9.800;2023-04-28T14:55:36;0.20;;;0.10;;
9364;SDS011;4722;49.340;9.800;2023-04-28T14:58:02;0.50;;;0.20;;
9364;SDS011;4722;49.340;9.800;2023-04-28T15:00:28;1.08;;;0.50;;
9364;SDS011;4722;49.340;9.800;2023-04-28T15:02:55;0.52;;;0.10;;
9364;SDS011;4722;49.340;9.800;2023-04-28T15:05:21;0.38;;;0.10;;
9364;SDS011;4722;49.340;9.800;2023-04-28T15:07:47;2.75;;;0.10;;
9364;SDS011;4722;49.340;9.800;2023-04-28T15:10:13;1.98;;;0.20;;
9364;SDS011;4722;49.340;9.800;2023-04-28T15:12:39;1.27;;;0.32;;
9364;SDS011;4722;49.340;9.800;2023-04-28T15:15:06;2.17;;;0.57;;
9364;SDS011;4722;49.340;9.800;2023-04-28T15:17:32;2.70;;;0.52;;
9364;SDS011;4722;49.340;9.800;2023-04-28T15:19:59;2.17;;;0.75;;
9364;SDS011;4722;49.340;9.800;2023-04-28T15:22:25;2.15;;;0.80;;
9364;SDS011;4722;49.340;9.800;2023-04-28T15:24:51;2.53;;;1.30;;
9364;SDS011;4722;49.340;9.800;2023-04-28T15:27:17;2.03;;;0.73;;
9364;SDS011;4722;49.340;9.800;2023-04-28T15:29:43;11.25;;;4.80;;
9364;SDS011;4722;49.340;9.800;2023-04-28T15:32:09;9.25;;;2.88;;
9364;SDS011;4722;49.340;9.800;2023-04-28T15:34:35;4.70;;;1.40;;
9364;SDS011;4722;49.340;9.800;2023-04-28T15:37:01;3.40;;;1.45;;
9364;SDS011;4722;49.340;9.800;2023-04-28T15:39:27;2.00;;;0.90;;
9364;SDS011;4722;49.340;9.800;2023-04-28T15:41:53;0.88;;;0.50;;
9364;SDS011;4722;49.340;9.800;2023-04-28T15:44:20;0.63;;;0.30;;